KLM912 EGBB-LEIB
Flight info
| Callsign | KLM912 |
|---|---|
| Flight time | 2h 16m |
| Altitude | 35000 |
| Route | ADMEX Y321 CPT UN859 SOPIL DCT BALAN DCT EVPOK DCT NARAK DCT GAI DCT LOMRA DCT ROCAN DCT PUMAL N859 BCN Z174 CORDA |
| Aircraft | B738/M-SDE2E3FGHIRWXY/LB1 |
Departure
| Time | 2026-05-04 06:44 |
|---|---|
| Airport | Birmingham Airport (EGBB) |
Arrival
| Time | 2026-05-04 09:01 |
|---|---|
| Airport | Ibiza Airport (LEIB) |
| Time | Latitude | Longitude | Altitude | Speed | Heading |
|---|---|---|---|---|---|
| 2026-05-04 06:27 | 52.44972 | -1.73443 | 333 ft | 0 kts | 325° |
| 2026-05-04 06:41 | 52.44973 | -1.73443 | 333 ft | 0 kts | 325° |
| 2026-05-04 06:41 | 52.44984 | -1.73474 | 330 ft | 6 kts | 287° |
| 2026-05-04 06:42 | 52.44960 | -1.73552 | 333 ft | 10 kts | 219° |
| 2026-05-04 06:42 | 52.44889 | -1.73644 | 331 ft | 15 kts | 213° |
| 2026-05-04 06:42 | 52.44778 | -1.73709 | 332 ft | 19 kts | 197° |
| 2026-05-04 06:44 | 52.45024 | -1.74404 | 329 ft | 112 kts | 325° |
| 2026-05-04 06:44 | 52.45814 | -1.75277 | 371 ft | 156 kts | 326° |
| 2026-05-04 06:44 | 52.46706 | -1.76226 | 1000 ft | 154 kts | 328° |
| 2026-05-04 06:45 | 52.47664 | -1.77254 | 1439 ft | 171 kts | 327° |
| 2026-05-04 06:45 | 52.48689 | -1.78408 | 1908 ft | 186 kts | 326° |
| 2026-05-04 06:45 | 52.49792 | -1.79686 | 2398 ft | 203 kts | 327° |
| 2026-05-04 06:45 | 52.51152 | -1.80494 | 2916 ft | 218 kts | 356° |
| 2026-05-04 06:46 | 52.52650 | -1.79974 | 3732 ft | 222 kts | 30° |
| 2026-05-04 06:46 | 52.53748 | -1.78197 | 4647 ft | 228 kts | 63° |
| 2026-05-04 06:46 | 52.54078 | -1.75658 | 5566 ft | 233 kts | 90° |
| 2026-05-04 06:46 | 52.53805 | -1.73011 | 6415 ft | 238 kts | 102° |
| 2026-05-04 06:48 | 52.46193 | -1.56368 | 11564 ft | 297 kts | 142° |
| 2026-05-04 06:48 | 52.44444 | -1.54459 | 12129 ft | 311 kts | 149° |
| 2026-05-04 06:49 | 52.42551 | -1.52564 | 12591 ft | 328 kts | 150° |
| 2026-05-04 06:50 | 52.26147 | -1.43413 | 17243 ft | 377 kts | 171° |
| 2026-05-04 06:51 | 52.23547 | -1.42697 | 17948 ft | 381 kts | 171° |
| 2026-05-04 06:51 | 52.20920 | -1.41955 | 18633 ft | 385 kts | 171° |
| 2026-05-04 06:51 | 52.18306 | -1.41207 | 19290 ft | 388 kts | 171° |
| 2026-05-04 06:51 | 52.15634 | -1.40444 | 19938 ft | 392 kts | 171° |
| 2026-05-04 06:52 | 52.12933 | -1.39681 | 20577 ft | 396 kts | 171° |
| 2026-05-04 06:52 | 52.10210 | -1.38917 | 21181 ft | 399 kts | 171° |
| 2026-05-04 06:52 | 52.07462 | -1.38147 | 21774 ft | 402 kts | 171° |
| 2026-05-04 06:52 | 52.04688 | -1.37368 | 22348 ft | 406 kts | 171° |
| 2026-05-04 06:53 | 52.01896 | -1.36585 | 22896 ft | 409 kts | 171° |
| 2026-05-04 06:53 | 51.99081 | -1.35795 | 23431 ft | 412 kts | 171° |
| 2026-05-04 06:53 | 51.96245 | -1.35001 | 23959 ft | 415 kts | 171° |
| 2026-05-04 06:53 | 51.93392 | -1.34203 | 24460 ft | 417 kts | 171° |
| 2026-05-04 06:54 | 51.90514 | -1.33400 | 24936 ft | 420 kts | 171° |
| 2026-05-04 06:54 | 51.87626 | -1.32593 | 25398 ft | 423 kts | 171° |
| 2026-05-04 06:54 | 51.84720 | -1.31785 | 25832 ft | 425 kts | 171° |
| 2026-05-04 06:54 | 51.81792 | -1.30972 | 26253 ft | 427 kts | 171° |
| 2026-05-04 06:55 | 51.78853 | -1.30156 | 26652 ft | 430 kts | 171° |
| 2026-05-04 06:55 | 51.75896 | -1.29337 | 27038 ft | 432 kts | 171° |
| 2026-05-04 06:55 | 51.72927 | -1.28515 | 27411 ft | 434 kts | 171° |
| 2026-05-04 06:55 | 51.69943 | -1.27689 | 27765 ft | 436 kts | 171° |
| 2026-05-04 06:56 | 51.66938 | -1.26858 | 28111 ft | 438 kts | 171° |
| 2026-05-04 06:57 | 51.45847 | -1.19513 | 30505 ft | 446 kts | 157° |
| 2026-05-04 06:58 | 51.43054 | -1.17493 | 30872 ft | 446 kts | 157° |
| 2026-05-04 06:58 | 51.40201 | -1.15396 | 31235 ft | 445 kts | 156° |
| 2026-05-04 06:58 | 51.37425 | -1.13337 | 31590 ft | 445 kts | 156° |
| 2026-05-04 06:58 | 51.34612 | -1.11254 | 31922 ft | 445 kts | 156° |
| 2026-05-04 06:59 | 51.31802 | -1.09191 | 32260 ft | 444 kts | 156° |
| 2026-05-04 06:59 | 51.28990 | -1.07141 | 32590 ft | 444 kts | 157° |
| 2026-05-04 06:59 | 51.26182 | -1.05097 | 32915 ft | 444 kts | 156° |
| 2026-05-04 06:59 | 51.23375 | -1.03050 | 33233 ft | 443 kts | 156° |
| 2026-05-04 07:01 | 51.03717 | -0.88769 | 35011 ft | 448 kts | 156° |
| 2026-05-04 07:01 | 51.00876 | -0.86717 | 35007 ft | 448 kts | 156° |
| 2026-05-04 07:02 | 50.95261 | -0.82667 | 35009 ft | 443 kts | 156° |
| 2026-05-04 07:02 | 50.89651 | -0.78637 | 35006 ft | 442 kts | 156° |
| 2026-05-04 07:03 | 50.84159 | -0.74263 | 35022 ft | 443 kts | 149° |
| 2026-05-04 07:03 | 50.78959 | -0.69003 | 35005 ft | 444 kts | 148° |
| 2026-05-04 07:04 | 50.73765 | -0.63697 | 35001 ft | 444 kts | 148° |
| 2026-05-04 07:04 | 50.68574 | -0.58432 | 35003 ft | 443 kts | 148° |
| 2026-05-04 07:05 | 50.63387 | -0.53196 | 35003 ft | 443 kts | 148° |
| 2026-05-04 07:05 | 50.58194 | -0.47955 | 35005 ft | 443 kts | 149° |
| 2026-05-04 07:06 | 50.50401 | -0.40120 | 34998 ft | 443 kts | 149° |
| 2026-05-04 07:07 | 50.45236 | -0.34946 | 34998 ft | 443 kts | 149° |
| 2026-05-04 07:09 | 50.24434 | -0.14241 | 34999 ft | 443 kts | 149° |
| 2026-05-04 07:09 | 50.19230 | -0.09094 | 35005 ft | 443 kts | 149° |
| 2026-05-04 07:10 | 50.14020 | -0.03959 | 35004 ft | 443 kts | 149° |
| 2026-05-04 07:12 | 49.91127 | 0.07424 | 35002 ft | 430 kts | 167° |
| 2026-05-04 07:12 | 49.85314 | 0.09716 | 34999 ft | 431 kts | 167° |
| 2026-05-04 07:13 | 49.79498 | 0.11986 | 35007 ft | 431 kts | 167° |
| 2026-05-04 07:13 | 49.73682 | 0.14250 | 35006 ft | 431 kts | 167° |
| 2026-05-04 07:14 | 49.59200 | 0.20017 | 35013 ft | 431 kts | 167° |
| 2026-05-04 07:15 | 49.53406 | 0.22356 | 35005 ft | 431 kts | 167° |
| 2026-05-04 07:15 | 49.47598 | 0.24671 | 35003 ft | 431 kts | 167° |
| 2026-05-04 07:16 | 49.41791 | 0.26998 | 35002 ft | 431 kts | 167° |
| 2026-05-04 07:16 | 49.35986 | 0.29317 | 35011 ft | 430 kts | 167° |
| 2026-05-04 07:17 | 49.30232 | 0.31607 | 35000 ft | 430 kts | 167° |
| 2026-05-04 07:17 | 49.24465 | 0.34035 | 35002 ft | 430 kts | 166° |
| 2026-05-04 07:18 | 49.18699 | 0.36510 | 35005 ft | 430 kts | 166° |
| 2026-05-04 07:18 | 49.12927 | 0.38916 | 35008 ft | 429 kts | 166° |
| 2026-05-04 07:19 | 49.07161 | 0.41327 | 35004 ft | 429 kts | 166° |
| 2026-05-04 07:19 | 49.01400 | 0.43744 | 35004 ft | 430 kts | 166° |
| 2026-05-04 07:20 | 48.95626 | 0.46150 | 35009 ft | 430 kts | 166° |
| 2026-05-04 07:20 | 48.89860 | 0.48550 | 35006 ft | 429 kts | 166° |
| 2026-05-04 07:22 | 48.66801 | 0.57824 | 35002 ft | 429 kts | 167° |
| 2026-05-04 07:23 | 48.61024 | 0.60096 | 35004 ft | 429 kts | 167° |
| 2026-05-04 07:23 | 48.56216 | 0.61976 | 34999 ft | 429 kts | 167° |
| 2026-05-04 07:24 | 48.50439 | 0.64225 | 34994 ft | 429 kts | 167° |
| 2026-05-04 07:24 | 48.44677 | 0.66586 | 35004 ft | 429 kts | 166° |
| 2026-05-04 07:26 | 48.21615 | 0.75918 | 34990 ft | 429 kts | 167° |
| 2026-05-04 07:27 | 48.15848 | 0.78168 | 34988 ft | 428 kts | 167° |
| 2026-05-04 07:27 | 48.10080 | 0.80431 | 34989 ft | 428 kts | 167° |
| 2026-05-04 07:28 | 48.04315 | 0.82697 | 34986 ft | 428 kts | 167° |
| 2026-05-04 07:28 | 47.98588 | 0.84934 | 34987 ft | 428 kts | 167° |
| 2026-05-04 07:29 | 47.92817 | 0.87184 | 34989 ft | 428 kts | 167° |
| 2026-05-04 07:29 | 47.87049 | 0.89428 | 34979 ft | 428 kts | 167° |
| 2026-05-04 07:30 | 47.81285 | 0.91667 | 34981 ft | 427 kts | 167° |
| 2026-05-04 07:30 | 47.75520 | 0.93900 | 34979 ft | 428 kts | 167° |
| 2026-05-04 07:31 | 47.69749 | 0.96131 | 34979 ft | 428 kts | 167° |
| 2026-05-04 07:33 | 47.46730 | 1.04976 | 34977 ft | 428 kts | 167° |
| 2026-05-04 07:33 | 47.40896 | 1.06383 | 34985 ft | 425 kts | 181° |
| 2026-05-04 07:34 | 47.34979 | 1.06285 | 34981 ft | 425 kts | 182° |
| 2026-05-04 07:34 | 47.29055 | 1.06112 | 34977 ft | 426 kts | 182° |
| 2026-05-04 07:35 | 47.23129 | 1.05975 | 34979 ft | 426 kts | 182° |
| 2026-05-04 07:35 | 47.17197 | 1.05845 | 34978 ft | 426 kts | 182° |
| 2026-05-04 07:36 | 47.11271 | 1.05702 | 34979 ft | 426 kts | 182° |
| 2026-05-04 07:38 | 46.87597 | 1.04847 | 34978 ft | 426 kts | 182° |
| 2026-05-04 07:38 | 46.81674 | 1.04612 | 34977 ft | 425 kts | 182° |
| 2026-05-04 07:39 | 46.75761 | 1.04357 | 34977 ft | 425 kts | 183° |
| 2026-05-04 07:39 | 46.69842 | 1.04101 | 34979 ft | 426 kts | 182° |
| 2026-05-04 07:40 | 46.63949 | 1.03854 | 34979 ft | 426 kts | 182° |
| 2026-05-04 07:40 | 46.58017 | 1.03604 | 34980 ft | 426 kts | 183° |
| 2026-05-04 07:41 | 46.52087 | 1.03472 | 34976 ft | 427 kts | 176° |
| 2026-05-04 07:41 | 46.46231 | 1.05111 | 34986 ft | 430 kts | 169° |
| 2026-05-04 07:42 | 46.40407 | 1.07078 | 34980 ft | 430 kts | 168° |
| 2026-05-04 07:42 | 46.34588 | 1.09037 | 34978 ft | 429 kts | 169° |
| 2026-05-04 07:43 | 46.28769 | 1.10962 | 34976 ft | 429 kts | 169° |
| 2026-05-04 07:43 | 46.22982 | 1.12885 | 34979 ft | 429 kts | 169° |
| 2026-05-04 07:44 | 46.17159 | 1.14820 | 34978 ft | 429 kts | 169° |
| 2026-05-04 07:44 | 46.11332 | 1.16747 | 34979 ft | 429 kts | 169° |
| 2026-05-04 07:45 | 46.05514 | 1.18667 | 34979 ft | 429 kts | 169° |
| 2026-05-04 07:45 | 45.99690 | 1.20586 | 34978 ft | 429 kts | 169° |
| 2026-05-04 07:46 | 45.93865 | 1.22501 | 34981 ft | 430 kts | 169° |
| 2026-05-04 07:46 | 45.88009 | 1.24422 | 34977 ft | 432 kts | 169° |
| 2026-05-04 07:47 | 45.82152 | 1.26340 | 34979 ft | 431 kts | 169° |
| 2026-05-04 07:49 | 45.58801 | 1.33941 | 34985 ft | 431 kts | 169° |
| 2026-05-04 07:49 | 45.52950 | 1.35836 | 34993 ft | 431 kts | 169° |
| 2026-05-04 07:50 | 45.47099 | 1.37726 | 34996 ft | 431 kts | 169° |
| 2026-05-04 07:50 | 45.41252 | 1.39612 | 34984 ft | 431 kts | 169° |
| 2026-05-04 07:51 | 45.35399 | 1.41496 | 34987 ft | 431 kts | 169° |
| 2026-05-04 07:51 | 45.29549 | 1.43374 | 34988 ft | 431 kts | 169° |
| 2026-05-04 07:52 | 45.23698 | 1.45247 | 34986 ft | 432 kts | 169° |
| 2026-05-04 07:52 | 45.17876 | 1.47109 | 34988 ft | 432 kts | 169° |
| 2026-05-04 07:54 | 44.94411 | 1.54574 | 34987 ft | 433 kts | 169° |
| 2026-05-04 07:55 | 44.88524 | 1.56436 | 34987 ft | 433 kts | 169° |
| 2026-05-04 07:55 | 44.82637 | 1.58295 | 34985 ft | 433 kts | 169° |
| 2026-05-04 07:56 | 44.76753 | 1.60148 | 34994 ft | 433 kts | 169° |
| 2026-05-04 07:56 | 44.70863 | 1.62000 | 34997 ft | 434 kts | 169° |
| 2026-05-04 07:57 | 44.64975 | 1.63847 | 34994 ft | 434 kts | 169° |
| 2026-05-04 07:57 | 44.59082 | 1.65692 | 34995 ft | 435 kts | 169° |
| 2026-05-04 07:58 | 44.53168 | 1.67540 | 34994 ft | 435 kts | 169° |
| 2026-05-04 07:58 | 44.47261 | 1.69383 | 34998 ft | 435 kts | 169° |
| 2026-05-04 07:59 | 44.41381 | 1.71212 | 35003 ft | 435 kts | 169° |
| 2026-05-04 07:59 | 44.35463 | 1.73050 | 35004 ft | 435 kts | 170° |
| 2026-05-04 08:00 | 44.29546 | 1.74881 | 35004 ft | 435 kts | 170° |
| 2026-05-04 08:02 | 44.05624 | 1.80193 | 35002 ft | 435 kts | 173° |
| 2026-05-04 08:02 | 43.99643 | 1.81480 | 35004 ft | 435 kts | 173° |
| 2026-05-04 08:03 | 43.93654 | 1.82730 | 34995 ft | 435 kts | 175° |
| 2026-05-04 08:03 | 43.87673 | 1.83255 | 34997 ft | 433 kts | 180° |
| 2026-05-04 08:04 | 43.81649 | 1.83673 | 35000 ft | 434 kts | 178° |
| 2026-05-04 08:04 | 43.75629 | 1.84350 | 34996 ft | 433 kts | 178° |
| 2026-05-04 08:05 | 43.69615 | 1.84942 | 34999 ft | 433 kts | 178° |
| 2026-05-04 08:05 | 43.63592 | 1.85491 | 34995 ft | 434 kts | 178° |
| 2026-05-04 08:06 | 43.57572 | 1.86083 | 34994 ft | 433 kts | 178° |
| 2026-05-04 08:06 | 43.51552 | 1.86667 | 34998 ft | 433 kts | 178° |
| 2026-05-04 08:08 | 43.27519 | 1.88965 | 34999 ft | 433 kts | 179° |
| 2026-05-04 08:11 | 43.00438 | 1.91544 | 34985 ft | 433 kts | 179° |
| 2026-05-04 08:11 | 42.92433 | 1.92303 | 34990 ft | 433 kts | 179° |
| 2026-05-04 08:12 | 42.86422 | 1.92870 | 35001 ft | 433 kts | 179° |
| 2026-05-04 08:12 | 42.79434 | 1.93529 | 34991 ft | 433 kts | 179° |
| 2026-05-04 08:13 | 42.74424 | 1.94001 | 34996 ft | 433 kts | 179° |
| 2026-05-04 08:13 | 42.68407 | 1.94566 | 35001 ft | 433 kts | 179° |
| 2026-05-04 08:14 | 42.62409 | 1.95482 | 34998 ft | 435 kts | 174° |
| 2026-05-04 08:16 | 42.38434 | 2.00498 | 35023 ft | 436 kts | 175° |
| 2026-05-04 08:16 | 42.32423 | 2.01443 | 35029 ft | 434 kts | 180° |
| 2026-05-04 08:17 | 42.26394 | 2.01792 | 35025 ft | 434 kts | 181° |
| 2026-05-04 08:17 | 42.20398 | 2.02349 | 35021 ft | 434 kts | 179° |
| 2026-05-04 08:19 | 41.96325 | 2.04670 | 35011 ft | 433 kts | 179° |
| 2026-05-04 08:20 | 41.90295 | 2.05233 | 35013 ft | 434 kts | 179° |
| 2026-05-04 08:20 | 41.84262 | 2.05796 | 35003 ft | 434 kts | 179° |
| 2026-05-04 08:21 | 41.78235 | 2.06362 | 34992 ft | 434 kts | 179° |
| 2026-05-04 08:21 | 41.72219 | 2.06924 | 34987 ft | 433 kts | 179° |
| 2026-05-04 08:22 | 41.66201 | 2.07484 | 35000 ft | 434 kts | 179° |
| 2026-05-04 08:24 | 41.42100 | 2.09727 | 34995 ft | 435 kts | 180° |
| 2026-05-04 08:24 | 41.36059 | 2.10286 | 34998 ft | 435 kts | 180° |
| 2026-05-04 08:25 | 41.30010 | 2.10853 | 34999 ft | 435 kts | 179° |
| 2026-05-04 08:25 | 41.23979 | 2.11825 | 35001 ft | 438 kts | 175° |
| 2026-05-04 08:27 | 40.99868 | 2.15954 | 35006 ft | 438 kts | 176° |
| 2026-05-04 08:28 | 40.93822 | 2.16955 | 35008 ft | 438 kts | 177° |
| 2026-05-04 08:28 | 40.87782 | 2.17954 | 35009 ft | 437 kts | 176° |
| 2026-05-04 08:29 | 40.81733 | 2.18962 | 35001 ft | 438 kts | 177° |
| 2026-05-04 08:31 | 40.57574 | 2.22951 | 35000 ft | 438 kts | 177° |
| 2026-05-04 08:33 | 40.33440 | 2.27636 | 35007 ft | 441 kts | 171° |
| 2026-05-04 08:35 | 40.09456 | 2.33889 | 35000 ft | 440 kts | 173° |
| 2026-05-04 08:35 | 40.03420 | 2.35425 | 34130 ft | 449 kts | 173° |
| 2026-05-04 08:37 | 39.85544 | 2.40011 | 30626 ft | 417 kts | 174° |
| 2026-05-04 08:37 | 39.82698 | 2.40732 | 30089 ft | 417 kts | 174° |
| 2026-05-04 08:37 | 39.79851 | 2.41456 | 29540 ft | 417 kts | 173° |
| 2026-05-04 08:38 | 39.77003 | 2.42174 | 28989 ft | 416 kts | 175° |
| 2026-05-04 08:38 | 39.74145 | 2.42429 | 28448 ft | 409 kts | 186° |
| 2026-05-04 08:38 | 39.71322 | 2.42098 | 27884 ft | 406 kts | 190° |
| 2026-05-04 08:40 | 39.53494 | 2.36335 | 24035 ft | 365 kts | 227° |
| 2026-05-04 08:40 | 39.51963 | 2.33744 | 23492 ft | 361 kts | 236° |
| 2026-05-04 08:40 | 39.50584 | 2.31036 | 22927 ft | 359 kts | 237° |
| 2026-05-04 08:41 | 39.49232 | 2.28330 | 22377 ft | 356 kts | 237° |
| 2026-05-04 08:41 | 39.47889 | 2.25647 | 21832 ft | 354 kts | 237° |
| 2026-05-04 08:41 | 39.46544 | 2.22990 | 21291 ft | 352 kts | 237° |
| 2026-05-04 08:41 | 39.45201 | 2.20357 | 20749 ft | 349 kts | 237° |
| 2026-05-04 08:42 | 39.43866 | 2.17743 | 20202 ft | 347 kts | 237° |
| 2026-05-04 08:42 | 39.42541 | 2.15145 | 19654 ft | 344 kts | 237° |
| 2026-05-04 08:42 | 39.41231 | 2.12573 | 19162 ft | 340 kts | 237° |
| 2026-05-04 08:42 | 39.39647 | 2.10378 | 18992 ft | 328 kts | 219° |
| 2026-05-04 08:43 | 39.37836 | 2.08714 | 18994 ft | 313 kts | 217° |
| 2026-05-04 08:43 | 39.36047 | 2.07150 | 18944 ft | 310 kts | 216° |
| 2026-05-04 08:43 | 39.34218 | 2.05626 | 18181 ft | 320 kts | 214° |
| 2026-05-04 08:43 | 39.32323 | 2.04092 | 17436 ft | 322 kts | 214° |
| 2026-05-04 08:44 | 39.30414 | 2.02542 | 16688 ft | 324 kts | 214° |
| 2026-05-04 08:44 | 39.28511 | 2.00978 | 15941 ft | 325 kts | 214° |
| 2026-05-04 08:46 | 39.14683 | 1.97616 | 12053 ft | 288 kts | 152° |
| 2026-05-04 08:46 | 39.12997 | 1.98942 | 11439 ft | 280 kts | 151° |
| 2026-05-04 08:46 | 39.11346 | 2.00215 | 10811 ft | 273 kts | 152° |
| 2026-05-04 08:46 | 39.09738 | 2.01408 | 10193 ft | 268 kts | 153° |
| 2026-05-04 08:47 | 39.08131 | 2.02573 | 9570 ft | 263 kts | 153° |
| 2026-05-04 08:47 | 39.06543 | 2.03703 | 8952 ft | 258 kts | 154° |
| 2026-05-04 08:47 | 39.04848 | 2.04262 | 8325 ft | 250 kts | 181° |
| 2026-05-04 08:47 | 39.03197 | 2.03712 | 7711 ft | 246 kts | 211° |
| 2026-05-04 08:48 | 39.02001 | 2.02195 | 7096 ft | 243 kts | 240° |
| 2026-05-04 08:48 | 39.01558 | 2.00152 | 6612 ft | 237 kts | 268° |
| 2026-05-04 08:48 | 39.01863 | 1.98098 | 6143 ft | 232 kts | 285° |
| 2026-05-04 08:48 | 39.02342 | 1.96134 | 5683 ft | 229 kts | 287° |
| 2026-05-04 08:49 | 39.02837 | 1.94190 | 5241 ft | 228 kts | 287° |
| 2026-05-04 08:50 | 39.05389 | 1.83517 | 3785 ft | 192 kts | 276° |
| 2026-05-04 08:50 | 39.05362 | 1.81806 | 3612 ft | 193 kts | 259° |
| 2026-05-04 08:51 | 39.04952 | 1.80166 | 3404 ft | 192 kts | 243° |
| 2026-05-04 08:51 | 39.04341 | 1.78640 | 3203 ft | 189 kts | 243° |
| 2026-05-04 08:51 | 39.03743 | 1.77144 | 3140 ft | 190 kts | 243° |
| 2026-05-04 08:51 | 39.03136 | 1.75627 | 3058 ft | 190 kts | 243° |
| 2026-05-04 08:52 | 39.02526 | 1.74101 | 3031 ft | 192 kts | 242° |
| 2026-05-04 08:52 | 39.01901 | 1.72592 | 3013 ft | 191 kts | 242° |
| 2026-05-04 08:52 | 39.01268 | 1.71083 | 3001 ft | 191 kts | 242° |
| 2026-05-04 08:52 | 39.00641 | 1.69584 | 3005 ft | 192 kts | 242° |
| 2026-05-04 08:53 | 39.00012 | 1.68079 | 3003 ft | 190 kts | 242° |
| 2026-05-04 08:54 | 38.95666 | 1.57700 | 3000 ft | 177 kts | 242° |
| 2026-05-04 08:55 | 38.95095 | 1.56309 | 2978 ft | 175 kts | 242° |
| 2026-05-04 08:55 | 38.94530 | 1.54933 | 2784 ft | 168 kts | 242° |
| 2026-05-04 08:55 | 38.93994 | 1.53625 | 2580 ft | 167 kts | 242° |
| 2026-05-04 08:55 | 38.93454 | 1.52311 | 2357 ft | 164 kts | 242° |
| 2026-05-04 08:57 | 38.89885 | 1.43615 | 879 ft | 147 kts | 241° |
| 2026-05-04 09:01 | 38.87486 | 1.36793 | 27 ft | 13 kts | 14° |
| 2026-05-04 09:01 | 38.87517 | 1.36804 | 28 ft | 0 kts | 17° |